createdAt,value
2019-04-01T00:00:26.762Z,9.83
2019-04-01T00:05:29.842Z,10.87
2019-04-01T00:10:32.916Z,9.53
2019-04-01T00:15:36.586Z,10.23
2019-04-01T00:20:39.973Z,10.70
2019-04-01T00:25:43.374Z,11.67
2019-04-01T00:30:46.463Z,11.60
2019-04-01T00:35:49.850Z,10.33
2019-04-01T00:40:52.922Z,10.77
2019-04-01T00:45:58.187Z,10.73
2019-04-01T00:51:01.583Z,9.57
2019-04-01T00:56:05.338Z,10.08
2019-04-01T01:01:08.675Z,12.67
2019-04-01T01:06:11.743Z,10.53
2019-04-01T01:11:14.811Z,10.53
2019-04-01T01:16:18.484Z,11.00
2019-04-01T01:21:21.811Z,10.33
2019-04-01T01:26:25.125Z,9.93
2019-04-01T01:31:28.533Z,11.63
2019-04-01T01:36:32.252Z,12.27
2019-04-01T01:41:35.321Z,11.67
2019-04-01T01:46:38.389Z,9.97
2019-04-01T01:51:41.822Z,12.50
2019-04-01T01:56:44.866Z,12.40
2019-04-01T02:01:48.350Z,12.67
2019-04-01T02:06:51.438Z,11.47
2019-04-01T02:11:54.900Z,13.50
2019-04-01T02:16:58.282Z,12.60
2019-04-01T02:22:01.362Z,10.63
2019-04-01T02:27:04.775Z,12.13
2019-04-01T02:32:08.186Z,10.80
2019-04-01T02:37:11.894Z,11.47
2019-04-01T02:42:14.980Z,11.57
2019-04-01T02:47:18.043Z,12.07
2019-04-01T02:52:21.443Z,11.10
2019-04-01T02:57:24.866Z,11.27
2019-04-01T03:02:28.565Z,10.43
2019-04-01T03:07:32.283Z,10.67
2019-04-01T03:12:35.682Z,10.70
2019-04-01T03:17:39.097Z,11.13
2019-04-01T03:22:42.167Z,12.97
2019-04-01T03:27:45.298Z,13.03
2019-04-01T03:32:48.662Z,11.63
2019-04-01T03:37:51.725Z,10.40
2019-04-01T03:42:54.787Z,13.73
2019-04-01T03:47:57.850Z,14.97
2019-04-01T03:53:01.479Z,14.43
2019-04-01T03:58:04.803Z,13.00
2019-04-01T04:03:08.198Z,11.10
2019-04-01T04:08:11.287Z,13.10
2019-04-01T04:13:14.720Z,14.33
2019-04-01T04:18:17.801Z,13.13
2019-04-01T04:23:20.874Z,16.07
2019-04-01T04:28:24.266Z,11.60
2019-04-01T04:33:27.580Z,10.10
2019-04-01T04:38:31.283Z,11.60
2019-04-01T04:43:34.356Z,14.73
2019-04-01T04:48:37.765Z,11.60
2019-04-01T04:53:41.134Z,10.10
2019-04-01T04:58:44.532Z,11.63
2019-04-01T05:03:48.191Z,12.33
2019-04-01T05:08:51.656Z,11.70
2019-04-01T05:13:56.202Z,12.35
2019-04-01T05:18:59.600Z,10.57
2019-04-01T05:24:02.747Z,11.53
2019-04-01T05:29:06.120Z,12.53
2019-04-01T05:34:09.763Z,10.57
2019-04-01T05:39:12.904Z,10.97
2019-04-01T05:44:16.969Z,10.00
2019-04-01T05:49:20.685Z,10.33
2019-04-01T05:54:24.160Z,11.03
2019-04-01T05:59:27.554Z,12.27
2019-04-01T06:04:30.888Z,10.20
2019-04-01T06:09:33.960Z,9.20
2019-04-01T06:14:37.295Z,7.97
2019-04-01T06:19:40.721Z,9.27
2019-04-01T06:24:44.041Z,8.07
2019-04-01T06:29:47.759Z,10.33
2019-04-01T06:34:53.084Z,7.43
2019-04-01T06:39:56.331Z,10.17
2019-04-01T06:44:59.737Z,11.97
2019-04-01T06:50:02.883Z,6.17
2019-04-01T06:55:06.390Z,7.67
2019-04-01T07:00:10.758Z,6.73
2019-04-01T07:05:13.838Z,6.97
2019-04-01T07:10:16.889Z,6.67
2019-04-01T07:15:20.262Z,7.60
2019-04-01T07:20:23.345Z,9.03
2019-04-01T07:25:26.681Z,9.37
2019-04-01T07:30:30.121Z,8.97
2019-04-01T07:35:33.605Z,9.97
2019-04-01T07:40:37.422Z,6.17
2019-04-01T07:45:40.830Z,10.83
2019-04-01T07:50:44.412Z,9.80
2019-04-01T07:55:47.486Z,7.23
2019-04-01T08:00:50.883Z,8.00
2019-04-01T08:05:55.215Z,7.13
2019-04-01T08:10:58.847Z,6.43
2019-04-01T08:16:02.562Z,6.60
2019-04-01T08:21:06.275Z,7.07
2019-04-01T08:26:09.602Z,9.10
2019-04-01T08:31:13.470Z,5.95
2019-04-01T08:36:16.939Z,7.83
2019-04-01T08:41:20.343Z,8.53
2019-04-01T08:46:24.071Z,10.63
2019-04-01T08:51:27.465Z,5.87
2019-04-01T08:56:30.538Z,8.07
2019-04-01T09:01:35.518Z,8.03
2019-04-01T09:06:39.177Z,10.07
2019-04-01T09:11:42.925Z,10.00
2019-04-01T09:16:46.710Z,9.63
2019-04-01T09:21:50.035Z,8.63
2019-04-01T09:26:53.429Z,9.77
2019-04-01T09:31:56.506Z,10.60
2019-04-01T09:36:59.562Z,13.90
2019-04-01T09:42:02.978Z,12.13
2019-04-01T09:47:06.370Z,12.17
2019-04-01T09:52:09.775Z,14.20
2019-04-01T09:57:17.990Z,12.13
2019-04-01T10:02:31.147Z,13.17
2019-04-01T10:07:23.163Z,10.80
2019-04-01T10:12:26.534Z,13.80
2019-04-01T10:17:29.941Z,13.70
2019-04-01T10:22:33.349Z,14.87
2019-04-01T10:27:36.425Z,15.10
2019-04-01T10:32:40.082Z,13.00
2019-04-01T10:37:43.512Z,16.83
2019-04-01T10:42:47.124Z,14.10
2019-04-01T10:47:50.561Z,14.45
2019-04-01T10:52:54.001Z,13.93
2019-04-01T10:57:57.111Z,13.57
2019-04-01T11:03:00.898Z,16.60
2019-04-01T11:08:04.431Z,13.07
2019-04-01T11:13:07.827Z,14.07
2019-04-01T11:18:12.089Z,18.13
2019-04-01T11:23:15.298Z,18.03
2019-04-01T11:28:18.732Z,20.00
2019-04-01T11:33:22.726Z,15.40
2019-04-01T11:38:26.147Z,17.97
2019-04-01T11:43:29.227Z,16.05
2019-04-01T11:48:32.652Z,16.03
2019-04-01T11:53:36.621Z,16.17
2019-04-01T11:58:40.637Z,15.80
2019-04-01T12:03:44.042Z,17.43
2019-04-01T12:08:47.726Z,16.63
2019-04-01T12:13:50.803Z,14.20
2019-04-01T12:18:53.868Z,15.47
2019-04-01T12:23:57.273Z,15.27
2019-04-01T12:29:00.675Z,15.97
2019-04-01T12:34:04.402Z,15.90
2019-04-01T12:39:08.177Z,17.07
2019-04-01T12:44:11.601Z,14.87
2019-04-01T12:49:14.740Z,15.50
2019-04-01T12:54:17.961Z,15.93
2019-04-01T12:59:21.285Z,18.30
2019-04-01T13:04:24.691Z,18.63
2019-04-01T13:09:28.089Z,15.27
2019-04-01T13:14:31.163Z,18.63
2019-04-01T13:19:34.536Z,20.80
2019-04-01T13:24:37.654Z,19.03
2019-04-01T13:29:41.063Z,15.00
2019-04-01T13:34:44.475Z,16.63
2019-04-01T13:39:47.541Z,15.27
2019-04-01T13:44:51.547Z,18.00
2019-04-01T13:49:54.945Z,14.70
2019-04-01T13:54:58.017Z,14.80
2019-04-01T14:00:01.427Z,15.97
2019-04-01T14:05:07.077Z,14.33
2019-04-01T14:10:10.454Z,16.73
2019-04-01T14:15:14.243Z,15.63
2019-04-01T14:20:17.665Z,14.57
2019-04-01T14:25:21.375Z,15.43
2019-04-01T14:30:25.096Z,14.67
2019-04-01T14:35:28.430Z,14.43
2019-04-01T14:40:32.668Z,17.20
2019-04-01T14:45:35.991Z,13.37
2019-04-01T14:50:39.093Z,12.23
2019-04-01T14:55:42.744Z,13.73
2019-04-01T15:00:45.813Z,14.13
2019-04-01T15:05:49.511Z,13.30
2019-04-01T15:10:53.006Z,14.40
2019-04-01T15:15:56.065Z,13.10
2019-04-01T15:20:59.474Z,16.33
2019-04-01T15:26:03.795Z,15.33
2019-04-01T15:31:07.817Z,14.75
2019-04-01T15:36:11.231Z,16.63
2019-04-01T15:41:15.311Z,14.40
2019-04-01T15:46:20.020Z,13.93
2019-04-01T15:51:23.432Z,14.60
2019-04-01T15:56:26.843Z,12.57
2019-04-01T16:01:30.597Z,11.97
2019-04-01T16:06:34.284Z,12.73
2019-04-01T16:11:37.690Z,14.13
2019-04-01T16:16:41.025Z,13.60
2019-04-01T16:21:44.738Z,13.07
2019-04-01T16:26:48.137Z,10.47
2019-04-01T16:31:55.058Z,12.23
2019-04-01T16:36:56.993Z,12.67
2019-04-01T16:42:00.074Z,14.50
2019-04-01T16:47:04.129Z,12.93
2019-04-01T16:52:07.605Z,14.67
2019-04-01T16:57:10.675Z,13.23
2019-04-01T17:02:18.347Z,12.67
2019-04-01T17:07:19.765Z,13.43
2019-04-01T17:12:23.334Z,13.27
2019-04-01T17:17:26.647Z,15.33
2019-04-01T17:22:30.114Z,11.97
2019-04-01T17:27:33.634Z,16.67
2019-04-01T17:32:37.041Z,14.17
2019-04-01T17:37:40.424Z,13.77
2019-04-01T17:42:44.238Z,14.18
2019-04-01T17:47:47.751Z,13.87
2019-04-01T17:52:53.793Z,14.43
2019-04-01T17:57:57.329Z,12.80
2019-04-01T18:03:00.434Z,15.13
2019-04-01T18:08:04.998Z,15.97
2019-04-01T18:13:09.529Z,13.93
2019-04-01T18:18:26.155Z,15.57
2019-04-01T18:23:21.936Z,12.67
2019-04-01T18:28:24.459Z,14.27
2019-04-01T18:33:30.137Z,16.77
2019-04-01T18:38:35.075Z,15.17
2019-04-01T18:43:38.807Z,14.23
2019-04-01T18:48:42.223Z,16.87
2019-04-01T18:53:45.641Z,16.77
2019-04-01T18:58:49.097Z,17.63
2019-04-01T19:03:52.480Z,18.20
2019-04-01T19:09:08.648Z,16.87
2019-04-01T19:14:11.204Z,17.43
2019-04-01T19:19:14.647Z,17.23
2019-04-01T19:24:17.724Z,15.17
2019-04-01T19:29:20.813Z,18.67
2019-04-01T19:34:23.909Z,18.30
2019-04-01T19:39:30.126Z,19.20
2019-04-01T19:44:32.622Z,16.77
2019-04-01T19:49:35.700Z,13.63
2019-04-01T19:54:39.044Z,14.90
2019-04-01T19:59:42.456Z,14.50
2019-04-01T20:04:45.530Z,16.07
2019-04-01T20:09:48.669Z,17.43
2019-04-01T20:14:52.410Z,16.07
2019-04-01T20:19:56.100Z,16.67
2019-04-01T20:24:59.250Z,15.47
2019-04-01T20:30:02.597Z,14.53
2019-04-01T20:35:06.840Z,15.73
2019-04-01T20:40:11.015Z,15.20
2019-04-01T20:45:15.137Z,17.37
2019-04-01T20:50:18.681Z,15.13
2019-04-01T20:55:22.070Z,14.50
2019-04-01T21:00:25.169Z,15.37
2019-04-01T21:05:28.489Z,16.27
2019-04-01T21:10:31.906Z,15.20
2019-04-01T21:15:35.319Z,13.50
2019-04-01T21:20:38.791Z,15.77
2019-04-01T21:25:42.447Z,15.07
2019-04-01T21:30:45.845Z,14.30
2019-04-01T21:35:49.293Z,14.57
2019-04-01T21:40:52.705Z,14.13
2019-04-01T21:45:56.112Z,16.23
2019-04-01T21:50:59.508Z,12.63
2019-04-01T21:56:02.928Z,14.47
2019-04-01T22:01:05.981Z,13.20
2019-04-01T22:06:09.658Z,15.50
2019-04-01T22:11:12.732Z,15.77
2019-04-01T22:16:15.803Z,12.80
2019-04-01T22:21:19.203Z,16.03
2019-04-01T22:26:22.601Z,13.23
2019-04-01T22:31:25.674Z,15.70
2019-04-01T22:36:31.150Z,16.23
2019-04-01T22:41:33.814Z,15.93
2019-04-01T22:46:37.197Z,14.70
2019-04-01T22:51:40.905Z,12.30
2019-04-01T22:56:44.638Z,14.53
2019-04-01T23:01:47.969Z,13.07
2019-04-01T23:06:51.043Z,13.30
2019-04-01T23:11:54.105Z,12.73
2019-04-01T23:16:57.784Z,13.20
2019-04-01T23:22:00.845Z,16.43
2019-04-01T23:27:04.507Z,13.20
2019-04-01T23:32:07.830Z,18.00
2019-04-01T23:37:10.904Z,15.40
2019-04-01T23:42:14.241Z,13.87
2019-04-01T23:47:17.311Z,12.97
2019-04-01T23:52:20.385Z,13.73
2019-04-01T23:57:25.006Z,13.73
